sensor_id;sensor_type;location;lat;lon;timestamp;pressure;altitude;pressure_sealevel;temperature;humidity
75513;BME280;64090;49.770;18.760;2022-12-10T00:01:33;96254.33;;;0.05;91.53
75513;BME280;64090;49.770;18.760;2022-12-10T00:04:36;96253.34;;;0.07;91.55
75513;BME280;64090;49.770;18.760;2022-12-10T00:07:39;96254.80;;;0.07;91.69
75513;BME280;64090;49.770;18.760;2022-12-10T00:10:42;96256.46;;;0.05;91.55
75513;BME280;64090;49.770;18.760;2022-12-10T00:13:46;96253.02;;;0.03;91.74
75513;BME280;64090;49.770;18.760;2022-12-10T00:16:51;96253.63;;;0.04;91.37
75513;BME280;64090;49.770;18.760;2022-12-10T00:19:54;96249.82;;;0.05;91.57
75513;BME280;64090;49.770;18.760;2022-12-10T00:22:57;96250.61;;;0.07;91.43
75513;BME280;64090;49.770;18.760;2022-12-10T00:26:05;96254.00;;;0.05;91.65
75513;BME280;64090;49.770;18.760;2022-12-10T00:29:10;96255.89;;;0.03;91.37
75513;BME280;64090;49.770;18.760;2022-12-10T00:32:13;96259.02;;;0.04;91.77
75513;BME280;64090;49.770;18.760;2022-12-10T00:35:16;96265.49;;;0.06;91.79
75513;BME280;64090;49.770;18.760;2022-12-10T00:38:19;96266.90;;;0.08;91.85
75513;BME280;64090;49.770;18.760;2022-12-10T00:41:21;96265.24;;;0.12;91.79
75513;BME280;64090;49.770;18.760;2022-12-10T00:44:24;96270.58;;;0.17;91.79
75513;BME280;64090;49.770;18.760;2022-12-10T00:47:27;96282.67;;;0.23;91.88
75513;BME280;64090;49.770;18.760;2022-12-10T00:50:30;96285.13;;;0.21;91.96
75513;BME280;64090;49.770;18.760;2022-12-10T00:53:34;96286.09;;;0.21;91.56
75513;BME280;64090;49.770;18.760;2022-12-10T00:56:37;96278.65;;;0.24;91.25
75513;BME280;64090;49.770;18.760;2022-12-10T00:59:43;96291.17;;;0.28;91.36
75513;BME280;64090;49.770;18.760;2022-12-10T01:02:46;96293.23;;;0.28;91.69
75513;BME280;64090;49.770;18.760;2022-12-10T01:05:48;96296.55;;;0.26;91.46
75513;BME280;64090;49.770;18.760;2022-12-10T01:08:52;96295.54;;;0.24;91.23
75513;BME280;64090;49.770;18.760;2022-12-10T01:11:57;96299.33;;;0.25;91.25
75513;BME280;64090;49.770;18.760;2022-12-10T01:15:04;96309.41;;;0.25;91.33
75513;BME280;64090;49.770;18.760;2022-12-10T01:18:07;96313.88;;;0.24;91.47
75513;BME280;64090;49.770;18.760;2022-12-10T01:21:12;96315.06;;;0.18;91.56
75513;BME280;64090;49.770;18.760;2022-12-10T01:24:16;96315.83;;;0.14;91.87
75513;BME280;64090;49.770;18.760;2022-12-10T01:27:18;96314.34;;;0.14;91.69
75513;BME280;64090;49.770;18.760;2022-12-10T01:30:21;96317.84;;;0.09;91.83
75513;BME280;64090;49.770;18.760;2022-12-10T01:33:24;96321.02;;;0.02;91.98
75513;BME280;64090;49.770;18.760;2022-12-10T01:36:32;96316.71;;;-0.01;92.45
75513;BME280;64090;49.770;18.760;2022-12-10T01:39:35;96324.36;;;0.02;92.77
75513;BME280;64090;49.770;18.760;2022-12-10T01:42:38;96323.21;;;0.03;92.72
75513;BME280;64090;49.770;18.760;2022-12-10T01:45:41;96319.74;;;0.03;92.12
75513;BME280;64090;49.770;18.760;2022-12-10T01:48:44;96319.90;;;0.02;92.28
75513;BME280;64090;49.770;18.760;2022-12-10T01:51:54;96313.17;;;-0.01;92.39
75513;BME280;64090;49.770;18.760;2022-12-10T01:54:58;96316.29;;;0.03;93.10
75513;BME280;64090;49.770;18.760;2022-12-10T01:58:00;96308.51;;;0.06;92.99
75513;BME280;64090;49.770;18.760;2022-12-10T02:01:11;96310.23;;;0.11;92.81
75513;BME280;64090;49.770;18.760;2022-12-10T02:14:17;96346.25;;;0.09;92.90
75513;BME280;64090;49.770;18.760;2022-12-10T02:17:29;96341.21;;;0.01;93.07
75513;BME280;64090;49.770;18.760;2022-12-10T02:20:45;96333.69;;;-0.07;93.05
75513;BME280;64090;49.770;18.760;2022-12-10T02:23:52;96333.20;;;-0.08;93.21
75513;BME280;64090;49.770;18.760;2022-12-10T02:27:06;96336.42;;;-0.06;93.21
75513;BME280;64090;49.770;18.760;2022-12-10T02:30:13;96329.00;;;-0.04;93.42
75513;BME280;64090;49.770;18.760;2022-12-10T02:33:17;96330.12;;;0.05;93.15
75513;BME280;64090;49.770;18.760;2022-12-10T02:36:23;96328.30;;;0.12;92.89
75513;BME280;64090;49.770;18.760;2022-12-10T02:39:33;96328.78;;;0.12;92.63
75513;BME280;64090;49.770;18.760;2022-12-10T02:42:41;96333.02;;;0.12;92.30
75513;BME280;64090;49.770;18.760;2022-12-10T02:45:46;96333.95;;;0.07;92.54
75513;BME280;64090;49.770;18.760;2022-12-10T02:48:50;96340.50;;;0.04;93.07
75513;BME280;64090;49.770;18.760;2022-12-10T02:51:53;96337.79;;;0.01;92.76
75513;BME280;64090;49.770;18.760;2022-12-10T02:54:56;96349.27;;;-0.03;93.00
75513;BME280;64090;49.770;18.760;2022-12-10T02:58:18;96347.45;;;-0.05;92.92
75513;BME280;64090;49.770;18.760;2022-12-10T03:04:46;96354.91;;;-0.06;93.57
75513;BME280;64090;49.770;18.760;2022-12-10T03:08:05;96358.14;;;-0.12;93.25
75513;BME280;64090;49.770;18.760;2022-12-10T03:11:17;96360.02;;;-0.12;93.29
75513;BME280;64090;49.770;18.760;2022-12-10T03:14:28;96362.00;;;-0.14;93.31
75513;BME280;64090;49.770;18.760;2022-12-10T03:17:32;96366.50;;;-0.13;93.52
75513;BME280;64090;49.770;18.760;2022-12-10T03:20:38;96370.80;;;-0.16;93.23
75513;BME280;64090;49.770;18.760;2022-12-10T03:23:46;96370.60;;;-0.16;93.76
75513;BME280;64090;49.770;18.760;2022-12-10T03:26:49;96371.36;;;-0.18;93.88
75513;BME280;64090;49.770;18.760;2022-12-10T03:29:54;96372.19;;;-0.21;93.93
75513;BME280;64090;49.770;18.760;2022-12-10T03:32:59;96370.16;;;-0.19;93.98
75513;BME280;64090;49.770;18.760;2022-12-10T03:36:04;96369.73;;;-0.19;93.86
75513;BME280;64090;49.770;18.760;2022-12-10T03:39:08;96364.91;;;-0.21;93.96
75513;BME280;64090;49.770;18.760;2022-12-10T03:42:11;96364.01;;;-0.18;93.81
75513;BME280;64090;49.770;18.760;2022-12-10T03:45:14;96361.54;;;-0.13;94.02
75513;BME280;64090;49.770;18.760;2022-12-10T03:48:17;96361.92;;;-0.07;93.86
75513;BME280;64090;49.770;18.760;2022-12-10T03:51:20;96368.37;;;-0.04;93.54
75513;BME280;64090;49.770;18.760;2022-12-10T03:54:23;96357.88;;;-0.07;93.29
75513;BME280;64090;49.770;18.760;2022-12-10T03:57:26;96354.48;;;-0.01;93.51
75513;BME280;64090;49.770;18.760;2022-12-10T04:00:29;96357.80;;;0.07;93.30
75513;BME280;64090;49.770;18.760;2022-12-10T04:03:40;96368.61;;;0.14;93.15
75513;BME280;64090;49.770;18.760;2022-12-10T04:06:43;96394.07;;;0.17;92.90
75513;BME280;64090;49.770;18.760;2022-12-10T04:09:46;96408.87;;;0.11;92.86
75513;BME280;64090;49.770;18.760;2022-12-10T04:12:49;96405.96;;;0.08;92.97
75513;BME280;64090;49.770;18.760;2022-12-10T04:16:12;96409.48;;;0.01;92.80
75513;BME280;64090;49.770;18.760;2022-12-10T04:19:30;96420.13;;;-0.06;93.35
75513;BME280;64090;49.770;18.760;2022-12-10T04:22:33;96418.84;;;-0.08;93.57
75513;BME280;64090;49.770;18.760;2022-12-10T04:25:55;96415.78;;;-0.06;93.37
75513;BME280;64090;49.770;18.760;2022-12-10T04:29:16;96419.28;;;-0.06;93.63
75513;BME280;64090;49.770;18.760;2022-12-10T04:32:20;96423.67;;;-0.11;93.75
75513;BME280;64090;49.770;18.760;2022-12-10T04:35:23;96425.52;;;-0.13;93.65
75513;BME280;64090;49.770;18.760;2022-12-10T04:38:26;96423.50;;;-0.14;93.90
75513;BME280;64090;49.770;18.760;2022-12-10T04:41:28;96424.42;;;-0.14;94.06
75513;BME280;64090;49.770;18.760;2022-12-10T04:44:32;96431.89;;;-0.14;94.02
75513;BME280;64090;49.770;18.760;2022-12-10T04:47:35;96439.27;;;-0.15;94.21
75513;BME280;64090;49.770;18.760;2022-12-10T04:50:37;96452.91;;;-0.14;94.31
75513;BME280;64090;49.770;18.760;2022-12-10T04:53:40;96452.91;;;-0.14;94.07
75513;BME280;64090;49.770;18.760;2022-12-10T04:56:43;96453.25;;;-0.17;94.20
75513;BME280;64090;49.770;18.760;2022-12-10T04:59:46;96459.11;;;-0.21;94.50
75513;BME280;64090;49.770;18.760;2022-12-10T05:02:49;96461.16;;;-0.21;94.38
75513;BME280;64090;49.770;18.760;2022-12-10T05:05:52;96452.58;;;-0.11;94.48
75513;BME280;64090;49.770;18.760;2022-12-10T05:08:54;96450.35;;;-0.02;94.10
75513;BME280;64090;49.770;18.760;2022-12-10T05:11:57;96444.85;;;0.07;93.65
75513;BME280;64090;49.770;18.760;2022-12-10T05:15:00;96431.95;;;0.13;93.40
75513;BME280;64090;49.770;18.760;2022-12-10T05:18:03;96420.09;;;0.19;93.55
75513;BME280;64090;49.770;18.760;2022-12-10T05:21:10;96413.27;;;0.23;93.35
75513;BME280;64090;49.770;18.760;2022-12-10T05:24:14;96414.95;;;0.27;92.85
75513;BME280;64090;49.770;18.760;2022-12-10T05:27:17;96422.05;;;0.28;92.68
75513;BME280;64090;49.770;18.760;2022-12-10T05:30:20;96420.19;;;0.30;92.82
75513;BME280;64090;49.770;18.760;2022-12-10T05:33:23;96424.07;;;0.31;92.73
75513;BME280;64090;49.770;18.760;2022-12-10T05:36:29;96426.45;;;0.31;92.47
75513;BME280;64090;49.770;18.760;2022-12-10T05:39:32;96417.63;;;0.31;92.31
75513;BME280;64090;49.770;18.760;2022-12-10T05:42:35;96410.23;;;0.30;92.37
75513;BME280;64090;49.770;18.760;2022-12-10T05:45:38;96400.72;;;0.28;92.24
75513;BME280;64090;49.770;18.760;2022-12-10T05:48:41;96409.79;;;0.26;92.56
75513;BME280;64090;49.770;18.760;2022-12-10T05:51:44;96422.05;;;0.24;92.32
75513;BME280;64090;49.770;18.760;2022-12-10T05:54:47;96428.36;;;0.22;92.50
75513;BME280;64090;49.770;18.760;2022-12-10T05:57:51;96429.16;;;0.21;92.50
75513;BME280;64090;49.770;18.760;2022-12-10T06:00:55;96437.86;;;0.22;92.59
75513;BME280;64090;49.770;18.760;2022-12-10T06:04:00;96453.41;;;0.24;92.37
75513;BME280;64090;49.770;18.760;2022-12-10T06:07:03;96459.77;;;0.27;92.60
75513;BME280;64090;49.770;18.760;2022-12-10T06:10:12;96469.26;;;0.29;92.66
75513;BME280;64090;49.770;18.760;2022-12-10T06:13:15;96469.37;;;0.26;92.70
75513;BME280;64090;49.770;18.760;2022-12-10T06:16:18;96474.80;;;0.29;92.48
75513;BME280;64090;49.770;18.760;2022-12-10T06:19:21;96477.30;;;0.33;92.23
75513;BME280;64090;49.770;18.760;2022-12-10T06:22:24;96483.08;;;0.34;92.41
75513;BME280;64090;49.770;18.760;2022-12-10T06:25:27;96480.26;;;0.36;92.25
75513;BME280;64090;49.770;18.760;2022-12-10T06:28:29;96489.63;;;0.38;91.96
75513;BME280;64090;49.770;18.760;2022-12-10T06:31:32;96500.52;;;0.40;92.11
75513;BME280;64090;49.770;18.760;2022-12-10T06:34:35;96515.08;;;0.41;92.02
75513;BME280;64090;49.770;18.760;2022-12-10T06:37:44;96520.97;;;0.40;91.89
75513;BME280;64090;49.770;18.760;2022-12-10T06:40:47;96521.66;;;0.40;92.04
75513;BME280;64090;49.770;18.760;2022-12-10T06:43:50;96518.40;;;0.38;92.37
75513;BME280;64090;49.770;18.760;2022-12-10T06:46:52;96511.89;;;0.40;92.27
75513;BME280;64090;49.770;18.760;2022-12-10T06:49:55;96507.33;;;0.45;91.90
75513;BME280;64090;49.770;18.760;2022-12-10T06:52:58;96511.06;;;0.49;91.66
75513;BME280;64090;49.770;18.760;2022-12-10T06:56:02;96513.42;;;0.53;91.62
75513;BME280;64090;49.770;18.760;2022-12-10T06:59:06;96517.19;;;0.56;91.76
75513;BME280;64090;49.770;18.760;2022-12-10T07:02:09;96518.50;;;0.60;91.85
75513;BME280;64090;49.770;18.760;2022-12-10T07:05:12;96520.42;;;0.63;91.42
75513;BME280;64090;49.770;18.760;2022-12-10T07:08:16;96520.89;;;0.65;91.17
75513;BME280;64090;49.770;18.760;2022-12-10T07:11:22;96517.00;;;0.66;91.49
75513;BME280;64090;49.770;18.760;2022-12-10T07:14:25;96512.45;;;0.66;90.98
75513;BME280;64090;49.770;18.760;2022-12-10T07:17:28;96514.23;;;0.66;90.94
75513;BME280;64090;49.770;18.760;2022-12-10T07:20:31;96510.88;;;0.68;90.95
75513;BME280;64090;49.770;18.760;2022-12-10T07:23:34;96511.28;;;0.70;91.17
75513;BME280;64090;49.770;18.760;2022-12-10T07:26:39;96512.87;;;0.73;91.24
75513;BME280;64090;49.770;18.760;2022-12-10T07:29:43;96511.89;;;0.74;90.59
75513;BME280;64090;49.770;18.760;2022-12-10T07:32:46;96512.27;;;0.74;90.54
75513;BME280;64090;49.770;18.760;2022-12-10T07:35:49;96507.16;;;0.71;91.00
75513;BME280;64090;49.770;18.760;2022-12-10T07:38:53;96512.61;;;0.63;90.67
75513;BME280;64090;49.770;18.760;2022-12-10T07:41:56;96514.61;;;0.59;90.80
75513;BME280;64090;49.770;18.760;2022-12-10T07:44:59;96520.09;;;0.59;91.14
75513;BME280;64090;49.770;18.760;2022-12-10T07:48:02;96516.52;;;0.61;91.34
75513;BME280;64090;49.770;18.760;2022-12-10T07:51:05;96522.58;;;0.62;90.90
75513;BME280;64090;49.770;18.760;2022-12-10T07:54:08;96527.41;;;0.64;90.64
75513;BME280;64090;49.770;18.760;2022-12-10T07:57:11;96526.46;;;0.64;90.86
75513;BME280;64090;49.770;18.760;2022-12-10T08:00:14;96523.45;;;0.64;90.93
75513;BME280;64090;49.770;18.760;2022-12-10T08:03:17;96517.58;;;0.62;90.76
75513;BME280;64090;49.770;18.760;2022-12-10T08:06:21;96516.90;;;0.65;90.69
75513;BME280;64090;49.770;18.760;2022-12-10T08:09:23;96520.95;;;0.66;90.39
75513;BME280;64090;49.770;18.760;2022-12-10T08:12:26;96520.27;;;0.72;90.76
75513;BME280;64090;49.770;18.760;2022-12-10T08:15:29;96518.89;;;0.81;90.62
75513;BME280;64090;49.770;18.760;2022-12-10T08:18:33;96515.52;;;0.88;90.42
75513;BME280;64090;49.770;18.760;2022-12-10T08:21:36;96521.98;;;0.93;90.40
75513;BME280;64090;49.770;18.760;2022-12-10T08:24:39;96522.56;;;0.98;90.32
75513;BME280;64090;49.770;18.760;2022-12-10T08:27:42;96524.30;;;1.03;89.96
75513;BME280;64090;49.770;18.760;2022-12-10T08:30:46;96532.91;;;1.08;89.63
75513;BME280;64090;49.770;18.760;2022-12-10T08:33:49;96538.19;;;1.20;89.45
75513;BME280;64090;49.770;18.760;2022-12-10T08:36:52;96539.23;;;1.37;89.00
75513;BME280;64090;49.770;18.760;2022-12-10T08:39:55;96542.79;;;1.56;88.84
75513;BME280;64090;49.770;18.760;2022-12-10T08:42:58;96537.31;;;1.76;88.22
75513;BME280;64090;49.770;18.760;2022-12-10T08:46:01;96534.05;;;1.93;88.08
75513;BME280;64090;49.770;18.760;2022-12-10T08:49:05;96530.41;;;2.08;86.89
75513;BME280;64090;49.770;18.760;2022-12-10T08:52:09;96525.30;;;2.13;86.86
75513;BME280;64090;49.770;18.760;2022-12-10T08:55:12;96519.34;;;2.22;86.56
75513;BME280;64090;49.770;18.760;2022-12-10T08:58:15;96519.02;;;2.22;86.60
75513;BME280;64090;49.770;18.760;2022-12-10T09:01:18;96524.03;;;2.19;86.89
75513;BME280;64090;49.770;18.760;2022-12-10T09:04:21;96528.94;;;2.14;86.71
75513;BME280;64090;49.770;18.760;2022-12-10T09:07:24;96521.58;;;2.13;86.30
75513;BME280;64090;49.770;18.760;2022-12-10T09:10:27;96521.95;;;2.11;86.12
75513;BME280;64090;49.770;18.760;2022-12-10T09:13:30;96531.23;;;2.08;86.11
75513;BME280;64090;49.770;18.760;2022-12-10T09:16:35;96527.55;;;2.08;86.16
75513;BME280;64090;49.770;18.760;2022-12-10T09:19:38;96510.90;;;2.10;85.73
75513;BME280;64090;49.770;18.760;2022-12-10T09:22:41;96505.27;;;2.11;85.05
75513;BME280;64090;49.770;18.760;2022-12-10T09:25:44;96502.52;;;2.08;85.01
75513;BME280;64090;49.770;18.760;2022-12-10T09:28:47;96510.18;;;2.12;85.07
75513;BME280;64090;49.770;18.760;2022-12-10T09:31:51;96510.06;;;2.07;85.03
75513;BME280;64090;49.770;18.760;2022-12-10T09:34:54;96512.74;;;2.04;85.39
75513;BME280;64090;49.770;18.760;2022-12-10T09:37:57;96505.46;;;2.10;85.18
75513;BME280;64090;49.770;18.760;2022-12-10T09:47:10;96508.92;;;2.11;84.17
75513;BME280;64090;49.770;18.760;2022-12-10T09:53:24;96504.71;;;2.02;84.30
75513;BME280;64090;49.770;18.760;2022-12-10T09:56:33;96508.83;;;2.03;84.34
75513;BME280;64090;49.770;18.760;2022-12-10T09:59:40;96497.99;;;2.04;84.28
75513;BME280;64090;49.770;18.760;2022-12-10T10:02:44;96495.20;;;2.06;84.56
75513;BME280;64090;49.770;18.760;2022-12-10T10:05:50;96494.13;;;2.08;83.92
75513;BME280;64090;49.770;18.760;2022-12-10T10:09:01;96496.49;;;2.07;84.14
75513;BME280;64090;49.770;18.760;2022-12-10T10:12:12;96498.09;;;2.11;84.28
75513;BME280;64090;49.770;18.760;2022-12-10T10:15:22;96494.10;;;2.12;84.42
75513;BME280;64090;49.770;18.760;2022-12-10T10:18:29;96489.83;;;2.16;84.25
75513;BME280;64090;49.770;18.760;2022-12-10T10:21:39;96498.38;;;2.16;83.88
75513;BME280;64090;49.770;18.760;2022-12-10T10:24:44;96499.59;;;2.13;84.35
75513;BME280;64090;49.770;18.760;2022-12-10T10:27:48;96494.14;;;2.02;84.20
75513;BME280;64090;49.770;18.760;2022-12-10T10:30:52;96505.35;;;1.95;83.96
75513;BME280;64090;49.770;18.760;2022-12-10T10:33:59;96505.31;;;1.90;84.18
75513;BME280;64090;49.770;18.760;2022-12-10T10:37:03;96498.55;;;1.89;84.73
75513;BME280;64090;49.770;18.760;2022-12-10T10:40:22;96500.11;;;1.88;85.02
75513;BME280;64090;49.770;18.760;2022-12-10T10:43:46;96496.26;;;1.79;84.94
75513;BME280;64090;49.770;18.760;2022-12-10T10:46:54;96499.90;;;1.75;84.53
75513;BME280;64090;49.770;18.760;2022-12-10T10:49:58;96501.06;;;1.77;85.06
75513;BME280;64090;49.770;18.760;2022-12-10T10:53:01;96500.43;;;1.75;85.45
75513;BME280;64090;49.770;18.760;2022-12-10T10:56:09;96498.15;;;1.70;84.90
75513;BME280;64090;49.770;18.760;2022-12-10T11:02:33;96494.16;;;1.67;85.29
75513;BME280;64090;49.770;18.760;2022-12-10T11:05:37;96494.88;;;1.63;85.18
75513;BME280;64090;49.770;18.760;2022-12-10T11:08:41;96497.64;;;1.57;85.73
75513;BME280;64090;49.770;18.760;2022-12-10T11:11:50;96496.67;;;1.52;85.43
75513;BME280;64090;49.770;18.760;2022-12-10T11:14:54;96491.14;;;1.56;85.36
75513;BME280;64090;49.770;18.760;2022-12-10T11:17:58;96493.06;;;1.56;85.51
75513;BME280;64090;49.770;18.760;2022-12-10T11:24:16;96498.91;;;1.50;85.67
75513;BME280;64090;49.770;18.760;2022-12-10T11:27:51;96501.12;;;1.49;85.50
75513;BME280;64090;49.770;18.760;2022-12-10T11:31:18;96499.63;;;1.49;85.61
75513;BME280;64090;49.770;18.760;2022-12-10T11:37:31;96495.11;;;1.44;85.51
75513;BME280;64090;49.770;18.760;2022-12-10T11:47:39;96493.02;;;1.29;85.94
75513;BME280;64090;49.770;18.760;2022-12-10T11:50:57;96488.05;;;1.33;86.50
75513;BME280;64090;49.770;18.760;2022-12-10T12:00:55;96485.98;;;1.37;86.80
75513;BME280;64090;49.770;18.760;2022-12-10T12:11:29;96482.58;;;1.24;86.50
75513;BME280;64090;49.770;18.760;2022-12-10T12:14:43;96474.08;;;1.22;86.67
75513;BME280;64090;49.770;18.760;2022-12-10T12:18:16;96479.73;;;1.20;87.00
75513;BME280;64090;49.770;18.760;2022-12-10T12:21:25;96484.63;;;1.22;86.86
75513;BME280;64090;49.770;18.760;2022-12-10T12:24:38;96485.82;;;1.23;86.76
75513;BME280;64090;49.770;18.760;2022-12-10T12:27:52;96486.88;;;1.22;86.45
75513;BME280;64090;49.770;18.760;2022-12-10T12:31:12;96482.07;;;1.10;86.80
75513;BME280;64090;49.770;18.760;2022-12-10T12:34:37;96481.02;;;1.03;87.00
75513;BME280;64090;49.770;18.760;2022-12-10T12:37:49;96477.59;;;0.98;87.53
75513;BME280;64090;49.770;18.760;2022-12-10T12:44:33;96487.20;;;0.87;87.91
75513;BME280;64090;49.770;18.760;2022-12-10T12:50:54;96476.67;;;0.81;88.01
75513;BME280;64090;49.770;18.760;2022-12-10T12:54:02;96474.76;;;0.84;88.22
75513;BME280;64090;49.770;18.760;2022-12-10T12:57:12;96472.40;;;0.84;88.32
75513;BME280;64090;49.770;18.760;2022-12-10T13:00:18;96477.27;;;0.82;88.30
75513;BME280;64090;49.770;18.760;2022-12-10T13:03:33;96481.81;;;0.81;88.53
75513;BME280;64090;49.770;18.760;2022-12-10T13:06:39;96493.02;;;0.82;88.65
75513;BME280;64090;49.770;18.760;2022-12-10T13:19:49;96516.73;;;0.77;88.85
75513;BME280;64090;49.770;18.760;2022-12-10T13:22:59;96510.80;;;0.74;88.68
75513;BME280;64090;49.770;18.760;2022-12-10T13:26:03;96507.51;;;0.73;88.87
75513;BME280;64090;49.770;18.760;2022-12-10T13:29:26;96514.80;;;0.76;89.04
75513;BME280;64090;49.770;18.760;2022-12-10T13:35:43;96518.64;;;0.73;88.69
75513;BME280;64090;49.770;18.760;2022-12-10T13:39:45;96523.88;;;0.73;88.88
75513;BME280;64090;49.770;18.760;2022-12-10T13:42:22;96521.89;;;0.69;89.07
75513;BME280;64090;49.770;18.760;2022-12-10T13:45:46;96518.11;;;0.67;89.11
75513;BME280;64090;49.770;18.760;2022-12-10T13:48:51;96517.32;;;0.68;89.50
75513;BME280;64090;49.770;18.760;2022-12-10T13:55:34;96510.14;;;0.60;89.28
75513;BME280;64090;49.770;18.760;2022-12-10T13:58:56;96514.19;;;0.55;89.35
75513;BME280;64090;49.770;18.760;2022-12-10T14:05:31;96515.25;;;0.54;89.88
75513;BME280;64090;49.770;18.760;2022-12-10T14:12:01;96520.57;;;0.50;90.15
75513;BME280;64090;49.770;18.760;2022-12-10T14:15:14;96514.31;;;0.50;90.19
75513;BME280;64090;49.770;18.760;2022-12-10T14:18:18;96516.79;;;0.46;90.18
75513;BME280;64090;49.770;18.760;2022-12-10T14:21:21;96519.58;;;0.43;90.24
75513;BME280;64090;49.770;18.760;2022-12-10T14:25:01;96515.98;;;0.42;90.41
75513;BME280;64090;49.770;18.760;2022-12-10T14:28:12;96520.87;;;0.40;90.34
75513;BME280;64090;49.770;18.760;2022-12-10T14:31:20;96531.96;;;0.38;90.29
75513;BME280;64090;49.770;18.760;2022-12-10T14:34:27;96530.92;;;0.38;90.42
75513;BME280;64090;49.770;18.760;2022-12-10T14:37:34;96526.34;;;0.37;90.56
75513;BME280;64090;49.770;18.760;2022-12-10T14:40:40;96529.35;;;0.36;90.54
75513;BME280;64090;49.770;18.760;2022-12-10T14:43:44;96521.67;;;0.37;90.77
75513;BME280;64090;49.770;18.760;2022-12-10T14:46:48;96507.55;;;0.33;90.84
75513;BME280;64090;49.770;18.760;2022-12-10T14:49:53;96507.35;;;0.32;90.87
75513;BME280;64090;49.770;18.760;2022-12-10T14:52:57;96509.94;;;0.32;91.04
75513;BME280;64090;49.770;18.760;2022-12-10T14:56:02;96518.91;;;0.30;91.09
75513;BME280;64090;49.770;18.760;2022-12-10T14:59:17;96526.05;;;0.30;90.90
75513;BME280;64090;49.770;18.760;2022-12-10T15:02:28;96523.94;;;0.27;91.18
75513;BME280;64090;49.770;18.760;2022-12-10T15:05:33;96527.42;;;0.24;91.46
75513;BME280;64090;49.770;18.760;2022-12-10T15:08:36;96533.63;;;0.23;91.87
75513;BME280;64090;49.770;18.760;2022-12-10T15:11:40;96530.46;;;0.19;91.92
75513;BME280;64090;49.770;18.760;2022-12-10T15:14:43;96531.73;;;0.16;91.86
75513;BME280;64090;49.770;18.760;2022-12-10T15:18:09;96533.47;;;0.18;92.12
75513;BME280;64090;49.770;18.760;2022-12-10T15:21:20;96528.08;;;0.16;91.96
75513;BME280;64090;49.770;18.760;2022-12-10T15:24:35;96525.02;;;0.19;92.10
75513;BME280;64090;49.770;18.760;2022-12-10T15:27:38;96524.38;;;0.20;91.89
75513;BME280;64090;49.770;18.760;2022-12-10T15:30:41;96523.42;;;0.15;91.93
75513;BME280;64090;49.770;18.760;2022-12-10T15:36:56;96511.45;;;0.15;91.85
75513;BME280;64090;49.770;18.760;2022-12-10T15:40:05;96507.08;;;0.16;92.00
75513;BME280;64090;49.770;18.760;2022-12-10T15:46:27;96514.27;;;0.12;91.91
75513;BME280;64090;49.770;18.760;2022-12-10T15:49:30;96521.28;;;0.10;92.14
75513;BME280;64090;49.770;18.760;2022-12-10T15:52:33;96521.70;;;0.10;92.17
75513;BME280;64090;49.770;18.760;2022-12-10T15:55:37;96516.30;;;0.06;91.98
75513;BME280;64090;49.770;18.760;2022-12-10T15:58:41;96516.70;;;0.06;92.07
75513;BME280;64090;49.770;18.760;2022-12-10T16:01:45;96520.61;;;0.07;92.16
75513;BME280;64090;49.770;18.760;2022-12-10T16:04:48;96522.49;;;0.09;92.35
75513;BME280;64090;49.770;18.760;2022-12-10T16:07:53;96523.71;;;0.07;92.21
75513;BME280;64090;49.770;18.760;2022-12-10T16:11:00;96517.61;;;0.10;92.59
75513;BME280;64090;49.770;18.760;2022-12-10T16:14:03;96520.15;;;0.06;92.30
75513;BME280;64090;49.770;18.760;2022-12-10T16:17:07;96515.55;;;0.04;92.47
75513;BME280;64090;49.770;18.760;2022-12-10T16:20:21;96515.67;;;0.02;92.58
75513;BME280;64090;49.770;18.760;2022-12-10T16:23:25;96517.45;;;0.04;92.65
75513;BME280;64090;49.770;18.760;2022-12-10T16:26:28;96516.95;;;0.03;92.72
75513;BME280;64090;49.770;18.760;2022-12-10T16:29:30;96509.13;;;0.02;92.74
75513;BME280;64090;49.770;18.760;2022-12-10T16:32:33;96507.16;;;0.03;92.51
75513;BME280;64090;49.770;18.760;2022-12-10T16:35:37;96507.08;;;0.03;92.62
75513;BME280;64090;49.770;18.760;2022-12-10T16:38:40;96506.73;;;0.05;92.85
75513;BME280;64090;49.770;18.760;2022-12-10T16:41:43;96506.75;;;0.02;92.81
75513;BME280;64090;49.770;18.760;2022-12-10T16:44:46;96508.12;;;0.00;92.60
75513;BME280;64090;49.770;18.760;2022-12-10T16:47:49;96504.14;;;-0.00;92.66
75513;BME280;64090;49.770;18.760;2022-12-10T16:50:52;96505.67;;;0.02;93.02
75513;BME280;64090;49.770;18.760;2022-12-10T16:54:05;96514.91;;;0.02;92.88
75513;BME280;64090;49.770;18.760;2022-12-10T16:57:14;96525.53;;;0.00;93.18
75513;BME280;64090;49.770;18.760;2022-12-10T17:00:23;96524.98;;;-0.01;92.82
75513;BME280;64090;49.770;18.760;2022-12-10T17:03:26;96523.15;;;-0.00;92.99
75513;BME280;64090;49.770;18.760;2022-12-10T17:06:31;96523.98;;;0.03;93.12
75513;BME280;64090;49.770;18.760;2022-12-10T17:09:34;96521.90;;;0.02;93.12
75513;BME280;64090;49.770;18.760;2022-12-10T17:12:37;96524.55;;;0.01;92.84
75513;BME280;64090;49.770;18.760;2022-12-10T17:15:42;96525.08;;;0.01;93.21
75513;BME280;64090;49.770;18.760;2022-12-10T17:18:45;96528.92;;;0.01;93.10
75513;BME280;64090;49.770;18.760;2022-12-10T17:21:48;96525.85;;;0.02;92.92
75513;BME280;64090;49.770;18.760;2022-12-10T17:24:51;96519.27;;;0.00;92.87
75513;BME280;64090;49.770;18.760;2022-12-10T17:27:54;96513.52;;;0.00;93.16
75513;BME280;64090;49.770;18.760;2022-12-10T17:30:58;96513.55;;;-0.00;93.48
75513;BME280;64090;49.770;18.760;2022-12-10T17:34:01;96511.95;;;0.00;92.85
75513;BME280;64090;49.770;18.760;2022-12-10T17:37:13;96509.55;;;0.03;93.06
75513;BME280;64090;49.770;18.760;2022-12-10T17:40:19;96507.10;;;0.03;92.91
75513;BME280;64090;49.770;18.760;2022-12-10T17:43:22;96503.76;;;0.02;92.91
75513;BME280;64090;49.770;18.760;2022-12-10T17:46:25;96511.39;;;0.01;93.01
75513;BME280;64090;49.770;18.760;2022-12-10T17:49:28;96513.84;;;-0.01;93.23
75513;BME280;64090;49.770;18.760;2022-12-10T17:52:34;96510.04;;;-0.03;93.27